sensor_id;sensor_type;location;lat;lon;timestamp;P1;durP1;ratioP1;P2;durP2;ratioP2
74269;SDS011;62754;48.252;11.654;2023-12-20T10:45:20;2.70;;;1.25;;
74269;SDS011;62754;48.252;11.654;2023-12-20T10:47:46;3.70;;;1.38;;
74269;SDS011;62754;48.252;11.654;2023-12-20T10:50:12;2.83;;;1.30;;
74269;SDS011;62754;48.252;11.654;2023-12-20T10:52:38;3.22;;;1.30;;
74269;SDS011;62754;48.252;11.654;2023-12-20T10:55:06;2.83;;;1.30;;
74269;SDS011;62754;48.252;11.654;2023-12-20T10:57:32;3.95;;;1.33;;
74269;SDS011;62754;48.252;11.654;2023-12-20T11:00:00;3.28;;;1.40;;
74269;SDS011;62754;48.252;11.654;2023-12-20T11:02:32;2.85;;;1.05;;
74269;SDS011;62754;48.252;11.654;2023-12-20T11:07:33;3.95;;;1.85;;
74269;SDS011;62754;48.252;11.654;2023-12-20T11:10:03;2.72;;;1.13;;
74269;SDS011;62754;48.252;11.654;2023-12-20T11:13:16;2.15;;;1.08;;
74269;SDS011;62754;48.252;11.654;2023-12-20T11:15:36;2.38;;;1.15;;
74269;SDS011;62754;48.252;11.654;2023-12-20T11:18:03;3.35;;;1.40;;
74269;SDS011;62754;48.252;11.654;2023-12-20T11:23:06;1.70;;;0.93;;
74269;SDS011;62754;48.252;11.654;2023-12-20T11:25:47;3.58;;;1.40;;
74269;SDS011;62754;48.252;11.654;2023-12-20T11:28:14;2.28;;;1.17;;
74269;SDS011;62754;48.252;11.654;2023-12-20T11:30:40;2.10;;;0.98;;
74269;SDS011;62754;48.252;11.654;2023-12-20T11:33:07;2.42;;;1.13;;
74269;SDS011;62754;48.252;11.654;2023-12-20T11:35:34;2.92;;;1.40;;
74269;SDS011;62754;48.252;11.654;2023-12-20T11:38:01;2.17;;;1.13;;
74269;SDS011;62754;48.252;11.654;2023-12-20T11:40:27;2.45;;;1.08;;
74269;SDS011;62754;48.252;11.654;2023-12-20T11:42:53;1.98;;;0.90;;
74269;SDS011;62754;48.252;11.654;2023-12-20T11:45:23;1.90;;;1.05;;
74269;SDS011;62754;48.252;11.654;2023-12-20T11:47:51;1.80;;;0.80;;
74269;SDS011;62754;48.252;11.654;2023-12-20T11:50:21;4.57;;;1.08;;
74269;SDS011;62754;48.252;11.654;2023-12-20T11:52:48;1.60;;;0.90;;
74269;SDS011;62754;48.252;11.654;2023-12-20T11:55:14;2.08;;;0.82;;
74269;SDS011;62754;48.252;11.654;2023-12-20T11:57:41;2.25;;;1.00;;
74269;SDS011;62754;48.252;11.654;2023-12-20T12:00:09;1.90;;;0.68;;
74269;SDS011;62754;48.252;11.654;2023-12-20T12:02:35;1.70;;;0.95;;
74269;SDS011;62754;48.252;11.654;2023-12-20T12:05:01;2.20;;;1.10;;
74269;SDS011;62754;48.252;11.654;2023-12-20T12:07:27;2.65;;;0.90;;
74269;SDS011;62754;48.252;11.654;2023-12-20T12:09:53;2.30;;;1.10;;
74269;SDS011;62754;48.252;11.654;2023-12-20T12:12:18;2.10;;;1.10;;
74269;SDS011;62754;48.252;11.654;2023-12-20T12:14:45;2.55;;;0.95;;
74269;SDS011;62754;48.252;11.654;2023-12-20T12:17:11;2.45;;;1.25;;
74269;SDS011;62754;48.252;11.654;2023-12-20T12:19:41;2.13;;;1.08;;
74269;SDS011;62754;48.252;11.654;2023-12-20T12:22:09;3.42;;;1.20;;
74269;SDS011;62754;48.252;11.654;2023-12-20T12:24:43;3.33;;;1.30;;
74269;SDS011;62754;48.252;11.654;2023-12-20T12:27:10;4.05;;;1.58;;
74269;SDS011;62754;48.252;11.654;2023-12-20T12:29:37;2.13;;;1.10;;
74269;SDS011;62754;48.252;11.654;2023-12-20T12:32:07;2.05;;;1.08;;
74269;SDS011;62754;48.252;11.654;2023-12-20T12:34:34;2.50;;;1.27;;
74269;SDS011;62754;48.252;11.654;2023-12-20T12:37:00;2.88;;;1.02;;
74269;SDS011;62754;48.252;11.654;2023-12-20T12:39:27;1.90;;;1.00;;
74269;SDS011;62754;48.252;11.654;2023-12-20T12:41:54;1.92;;;0.93;;
74269;SDS011;62754;48.252;11.654;2023-12-20T12:44:20;2.25;;;1.10;;
74269;SDS011;62754;48.252;11.654;2023-12-20T12:46:48;1.88;;;1.00;;
74269;SDS011;62754;48.252;11.654;2023-12-20T12:49:19;3.63;;;1.02;;
74269;SDS011;62754;48.252;11.654;2023-12-20T12:51:46;2.42;;;1.10;;
74269;SDS011;62754;48.252;11.654;2023-12-20T12:54:12;1.95;;;1.00;;
74269;SDS011;62754;48.252;11.654;2023-12-20T12:56:40;3.65;;;1.48;;
74269;SDS011;62754;48.252;11.654;2023-12-20T12:59:06;2.30;;;1.20;;
74269;SDS011;62754;48.252;11.654;2023-12-20T13:01:32;2.42;;;1.20;;
74269;SDS011;62754;48.252;11.654;2023-12-20T13:03:58;2.67;;;1.27;;
74269;SDS011;62754;48.252;11.654;2023-12-20T13:06:23;2.33;;;1.10;;
74269;SDS011;62754;48.252;11.654;2023-12-20T13:08:49;2.70;;;1.08;;
74269;SDS011;62754;48.252;11.654;2023-12-20T13:11:15;1.98;;;1.08;;
74269;SDS011;62754;48.252;11.654;2023-12-20T13:13:41;3.20;;;1.30;;
74269;SDS011;62754;48.252;11.654;2023-12-20T13:16:07;2.88;;;1.58;;
74269;SDS011;62754;48.252;11.654;2023-12-20T13:18:33;2.80;;;1.33;;
74269;SDS011;62754;48.252;11.654;2023-12-20T13:20:59;2.85;;;1.17;;
74269;SDS011;62754;48.252;11.654;2023-12-20T13:23:25;2.30;;;1.20;;
74269;SDS011;62754;48.252;11.654;2023-12-20T13:25:50;2.30;;;1.10;;
74269;SDS011;62754;48.252;11.654;2023-12-20T13:28:16;3.50;;;1.35;;
74269;SDS011;62754;48.252;11.654;2023-12-20T13:30:42;2.38;;;1.08;;
74269;SDS011;62754;48.252;11.654;2023-12-20T13:33:08;2.78;;;1.30;;
74269;SDS011;62754;48.252;11.654;2023-12-20T13:35:35;2.67;;;1.20;;
74269;SDS011;62754;48.252;11.654;2023-12-20T13:38:00;2.80;;;1.10;;
74269;SDS011;62754;48.252;11.654;2023-12-20T13:40:26;2.38;;;1.20;;
74269;SDS011;62754;48.252;11.654;2023-12-20T13:42:53;3.75;;;1.40;;
74269;SDS011;62754;48.252;11.654;2023-12-20T13:45:20;3.80;;;1.20;;
74269;SDS011;62754;48.252;11.654;2023-12-20T13:47:45;3.45;;;1.27;;
74269;SDS011;62754;48.252;11.654;2023-12-20T13:50:11;3.53;;;1.63;;
74269;SDS011;62754;48.252;11.654;2023-12-20T13:52:37;3.17;;;1.33;;
74269;SDS011;62754;48.252;11.654;2023-12-20T13:55:04;4.97;;;1.40;;
74269;SDS011;62754;48.252;11.654;2023-12-20T13:57:32;4.45;;;1.23;;
74269;SDS011;62754;48.252;11.654;2023-12-20T13:59:59;3.78;;;1.50;;
74269;SDS011;62754;48.252;11.654;2023-12-20T14:02:25;4.15;;;1.42;;
74269;SDS011;62754;48.252;11.654;2023-12-20T14:04:52;3.00;;;1.20;;
74269;SDS011;62754;48.252;11.654;2023-12-20T14:07:17;2.42;;;1.20;;
74269;SDS011;62754;48.252;11.654;2023-12-20T14:09:43;3.38;;;1.10;;
74269;SDS011;62754;48.252;11.654;2023-12-20T14:12:11;2.97;;;1.00;;
74269;SDS011;62754;48.252;11.654;2023-12-20T14:14:37;3.03;;;1.27;;
74269;SDS011;62754;48.252;11.654;2023-12-20T14:17:03;2.53;;;1.52;;
74269;SDS011;62754;48.252;11.654;2023-12-20T14:19:31;4.60;;;1.75;;
74269;SDS011;62754;48.252;11.654;2023-12-20T14:21:57;3.08;;;0.90;;
74269;SDS011;62754;48.252;11.654;2023-12-20T14:24:26;4.22;;;1.00;;
74269;SDS011;62754;48.252;11.654;2023-12-20T14:26:52;7.30;;;1.45;;
74269;SDS011;62754;48.252;11.654;2023-12-20T14:29:18;4.13;;;1.10;;
74269;SDS011;62754;48.252;11.654;2023-12-20T14:31:44;3.78;;;1.20;;
74269;SDS011;62754;48.252;11.654;2023-12-20T14:34:10;5.28;;;1.40;;
74269;SDS011;62754;48.252;11.654;2023-12-20T14:36:36;2.75;;;0.82;;
74269;SDS011;62754;48.252;11.654;2023-12-20T14:39:02;5.72;;;0.98;;
74269;SDS011;62754;48.252;11.654;2023-12-20T14:41:29;2.38;;;0.95;;
74269;SDS011;62754;48.252;11.654;2023-12-20T14:43:58;2.45;;;0.88;;
74269;SDS011;62754;48.252;11.654;2023-12-20T14:46:24;2.25;;;1.15;;
74269;SDS011;62754;48.252;11.654;2023-12-20T14:48:51;3.03;;;1.00;;
74269;SDS011;62754;48.252;11.654;2023-12-20T14:51:17;2.72;;;0.70;;
74269;SDS011;62754;48.252;11.654;2023-12-20T14:53:43;2.97;;;1.00;;
74269;SDS011;62754;48.252;11.654;2023-12-20T14:56:08;3.40;;;0.98;;
74269;SDS011;62754;48.252;11.654;2023-12-20T14:58:34;2.67;;;1.10;;
74269;SDS011;62754;48.252;11.654;2023-12-20T15:01:01;3.20;;;1.15;;
74269;SDS011;62754;48.252;11.654;2023-12-20T15:03:27;3.78;;;1.83;;
74269;SDS011;62754;48.252;11.654;2023-12-20T15:05:54;3.08;;;0.80;;
74269;SDS011;62754;48.252;11.654;2023-12-20T15:08:23;3.47;;;1.02;;
74269;SDS011;62754;48.252;11.654;2023-12-20T15:10:49;4.70;;;1.35;;
74269;SDS011;62754;48.252;11.654;2023-12-20T15:13:15;2.65;;;0.82;;
74269;SDS011;62754;48.252;11.654;2023-12-20T15:15:41;3.03;;;0.93;;
74269;SDS011;62754;48.252;11.654;2023-12-20T15:18:07;3.20;;;1.27;;
74269;SDS011;62754;48.252;11.654;2023-12-20T15:20:33;2.08;;;0.93;;
74269;SDS011;62754;48.252;11.654;2023-12-20T15:23:01;4.97;;;1.15;;
74269;SDS011;62754;48.252;11.654;2023-12-20T15:25:31;5.93;;;1.13;;
74269;SDS011;62754;48.252;11.654;2023-12-20T15:27:57;3.10;;;0.80;;
74269;SDS011;62754;48.252;11.654;2023-12-20T15:30:23;2.75;;;1.00;;
74269;SDS011;62754;48.252;11.654;2023-12-20T15:32:50;1.75;;;0.85;;
74269;SDS011;62754;48.252;11.654;2023-12-20T15:35:16;2.40;;;1.00;;
74269;SDS011;62754;48.252;11.654;2023-12-20T15:37:42;2.60;;;0.90;;
74269;SDS011;62754;48.252;11.654;2023-12-20T15:40:08;2.83;;;0.98;;
74269;SDS011;62754;48.252;11.654;2023-12-20T15:42:35;4.07;;;1.67;;
74269;SDS011;62754;48.252;11.654;2023-12-20T15:45:02;4.45;;;0.93;;
74269;SDS011;62754;48.252;11.654;2023-12-20T15:47:28;2.72;;;1.00;;
74269;SDS011;62754;48.252;11.654;2023-12-20T15:49:54;2.75;;;0.80;;
74269;SDS011;62754;48.252;11.654;2023-12-20T15:52:20;2.63;;;1.20;;
74269;SDS011;62754;48.252;11.654;2023-12-20T15:54:46;4.18;;;1.30;;
74269;SDS011;62754;48.252;11.654;2023-12-20T15:57:13;4.40;;;1.40;;
74269;SDS011;62754;48.252;11.654;2023-12-20T15:59:42;3.35;;;1.20;;
74269;SDS011;62754;48.252;11.654;2023-12-20T16:02:08;1.75;;;1.17;;
74269;SDS011;62754;48.252;11.654;2023-12-20T16:04:34;2.42;;;1.13;;
74269;SDS011;62754;48.252;11.654;2023-12-20T16:06:59;3.28;;;1.10;;
74269;SDS011;62754;48.252;11.654;2023-12-20T16:09:25;3.60;;;1.20;;
74269;SDS011;62754;48.252;11.654;2023-12-20T16:11:51;5.75;;;1.35;;
74269;SDS011;62754;48.252;11.654;2023-12-20T16:14:17;3.17;;;1.02;;
74269;SDS011;62754;48.252;11.654;2023-12-20T16:16:44;2.60;;;1.15;;
74269;SDS011;62754;48.252;11.654;2023-12-20T16:19:11;3.92;;;1.30;;
74269;SDS011;62754;48.252;11.654;2023-12-20T16:21:36;3.60;;;1.15;;
74269;SDS011;62754;48.252;11.654;2023-12-20T16:24:02;5.55;;;1.13;;
74269;SDS011;62754;48.252;11.654;2023-12-20T16:26:28;2.50;;;1.10;;
74269;SDS011;62754;48.252;11.654;2023-12-20T16:28:54;2.78;;;1.17;;
74269;SDS011;62754;48.252;11.654;2023-12-20T16:31:20;1.67;;;0.98;;
74269;SDS011;62754;48.252;11.654;2023-12-20T16:33:46;3.80;;;1.20;;
74269;SDS011;62754;48.252;11.654;2023-12-20T16:36:12;5.57;;;1.10;;
74269;SDS011;62754;48.252;11.654;2023-12-20T16:38:38;4.63;;;1.35;;
74269;SDS011;62754;48.252;11.654;2023-12-20T16:41:04;4.10;;;1.10;;
74269;SDS011;62754;48.252;11.654;2023-12-20T16:43:30;2.30;;;1.02;;
74269;SDS011;62754;48.252;11.654;2023-12-20T16:45:56;3.35;;;1.10;;
74269;SDS011;62754;48.252;11.654;2023-12-20T16:48:22;2.83;;;1.10;;
74269;SDS011;62754;48.252;11.654;2023-12-20T16:50:48;2.17;;;1.10;;
74269;SDS011;62754;48.252;11.654;2023-12-20T16:53:14;4.25;;;1.17;;
74269;SDS011;62754;48.252;11.654;2023-12-20T16:55:40;3.75;;;1.10;;
74269;SDS011;62754;48.252;11.654;2023-12-20T16:58:09;2.67;;;1.30;;
74269;SDS011;62754;48.252;11.654;2023-12-20T17:00:37;5.10;;;1.40;;
74269;SDS011;62754;48.252;11.654;2023-12-20T17:03:03;3.13;;;1.20;;
74269;SDS011;62754;48.252;11.654;2023-12-20T17:05:29;3.42;;;1.23;;
74269;SDS011;62754;48.252;11.654;2023-12-20T17:07:55;3.08;;;1.40;;
74269;SDS011;62754;48.252;11.654;2023-12-20T17:10:21;3.55;;;0.93;;
74269;SDS011;62754;48.252;11.654;2023-12-20T17:12:47;3.03;;;1.33;;
74269;SDS011;62754;48.252;11.654;2023-12-20T17:15:13;4.90;;;1.67;;
74269;SDS011;62754;48.252;11.654;2023-12-20T17:17:39;4.13;;;1.20;;
74269;SDS011;62754;48.252;11.654;2023-12-20T17:20:05;3.80;;;1.05;;
74269;SDS011;62754;48.252;11.654;2023-12-20T17:22:32;3.15;;;1.25;;
74269;SDS011;62754;48.252;11.654;2023-12-20T17:24:58;2.67;;;0.85;;
74269;SDS011;62754;48.252;11.654;2023-12-20T17:27:24;2.28;;;0.73;;
74269;SDS011;62754;48.252;11.654;2023-12-20T17:29:50;2.33;;;0.80;;
74269;SDS011;62754;48.252;11.654;2023-12-20T17:32:15;1.98;;;0.88;;
74269;SDS011;62754;48.252;11.654;2023-12-20T17:34:41;2.58;;;1.23;;
74269;SDS011;62754;48.252;11.654;2023-12-20T17:37:07;2.92;;;1.15;;
74269;SDS011;62754;48.252;11.654;2023-12-20T17:39:33;3.45;;;1.10;;
74269;SDS011;62754;48.252;11.654;2023-12-20T17:42:00;2.05;;;1.00;;
74269;SDS011;62754;48.252;11.654;2023-12-20T17:44:26;2.38;;;0.82;;
74269;SDS011;62754;48.252;11.654;2023-12-20T17:46:52;3.28;;;1.00;;
74269;SDS011;62754;48.252;11.654;2023-12-20T17:49:19;2.63;;;0.80;;
74269;SDS011;62754;48.252;11.654;2023-12-20T17:51:45;3.45;;;1.05;;
74269;SDS011;62754;48.252;11.654;2023-12-20T17:54:14;3.45;;;0.90;;
74269;SDS011;62754;48.252;11.654;2023-12-20T17:56:40;1.50;;;0.60;;
74269;SDS011;62754;48.252;11.654;2023-12-20T17:59:06;2.22;;;0.80;;
74269;SDS011;62754;48.252;11.654;2023-12-20T18:01:32;3.30;;;1.10;;
74269;SDS011;62754;48.252;11.654;2023-12-20T18:03:58;2.33;;;0.80;;
74269;SDS011;62754;48.252;11.654;2023-12-20T18:06:24;3.28;;;0.93;;
74269;SDS011;62754;48.252;11.654;2023-12-20T18:08:50;1.80;;;0.68;;
74269;SDS011;62754;48.252;11.654;2023-12-20T18:11:15;3.25;;;0.93;;
74269;SDS011;62754;48.252;11.654;2023-12-20T18:13:41;2.72;;;0.80;;
74269;SDS011;62754;48.252;11.654;2023-12-20T18:16:07;2.38;;;0.82;;
74269;SDS011;62754;48.252;11.654;2023-12-20T18:21:01;2.33;;;0.73;;
74269;SDS011;62754;48.252;11.654;2023-12-20T18:23:27;4.20;;;1.23;;
74269;SDS011;62754;48.252;11.654;2023-12-20T18:25:53;3.55;;;0.85;;
74269;SDS011;62754;48.252;11.654;2023-12-20T18:28:20;2.35;;;0.80;;
74269;SDS011;62754;48.252;11.654;2023-12-20T18:30:46;1.83;;;0.60;;
74269;SDS011;62754;48.252;11.654;2023-12-20T18:33:12;2.17;;;0.70;;
74269;SDS011;62754;48.252;11.654;2023-12-20T18:35:37;2.33;;;0.80;;
74269;SDS011;62754;48.252;11.654;2023-12-20T18:38:05;3.13;;;0.75;;
74269;SDS011;62754;48.252;11.654;2023-12-20T18:40:31;2.63;;;1.00;;
74269;SDS011;62754;48.252;11.654;2023-12-20T18:42:56;4.82;;;1.35;;
74269;SDS011;62754;48.252;11.654;2023-12-20T18:45:23;2.90;;;0.85;;
74269;SDS011;62754;48.252;11.654;2023-12-20T18:47:49;2.88;;;0.82;;
74269;SDS011;62754;48.252;11.654;2023-12-20T18:50:15;4.45;;;1.30;;
74269;SDS011;62754;48.252;11.654;2023-12-20T18:52:40;2.85;;;0.57;;
74269;SDS011;62754;48.252;11.654;2023-12-20T18:55:06;3.70;;;1.05;;
74269;SDS011;62754;48.252;11.654;2023-12-20T18:57:32;3.92;;;1.17;;
74269;SDS011;62754;48.252;11.654;2023-12-20T18:59:59;2.95;;;0.85;;
74269;SDS011;62754;48.252;11.654;2023-12-20T19:02:24;3.03;;;0.57;;
74269;SDS011;62754;48.252;11.654;2023-12-20T19:04:50;2.53;;;0.82;;
74269;SDS011;62754;48.252;11.654;2023-12-20T19:07:16;3.55;;;1.00;;
74269;SDS011;62754;48.252;11.654;2023-12-20T19:09:42;2.45;;;0.95;;
74269;SDS011;62754;48.252;11.654;2023-12-20T19:12:08;1.83;;;0.70;;
74269;SDS011;62754;48.252;11.654;2023-12-20T19:14:34;3.50;;;0.68;;
74269;SDS011;62754;48.252;11.654;2023-12-20T19:16:59;1.88;;;0.43;;
74269;SDS011;62754;48.252;11.654;2023-12-20T19:19:27;2.72;;;0.60;;
74269;SDS011;62754;48.252;11.654;2023-12-20T19:21:56;1.10;;;0.50;;
74269;SDS011;62754;48.252;11.654;2023-12-20T19:24:21;2.03;;;0.63;;
74269;SDS011;62754;48.252;11.654;2023-12-20T19:26:47;1.95;;;0.50;;
74269;SDS011;62754;48.252;11.654;2023-12-20T19:29:13;2.97;;;0.60;;
74269;SDS011;62754;48.252;11.654;2023-12-20T19:31:39;3.97;;;0.70;;
74269;SDS011;62754;48.252;11.654;2023-12-20T19:34:05;1.98;;;0.65;;
74269;SDS011;62754;48.252;11.654;2023-12-20T19:36:31;1.42;;;0.52;;
74269;SDS011;62754;48.252;11.654;2023-12-20T19:38:57;2.70;;;0.75;;
74269;SDS011;62754;48.252;11.654;2023-12-20T19:41:23;5.80;;;0.63;;
74269;SDS011;62754;48.252;11.654;2023-12-20T19:43:49;2.22;;;0.63;;
74269;SDS011;62754;48.252;11.654;2023-12-20T19:46:15;3.63;;;0.65;;
74269;SDS011;62754;48.252;11.654;2023-12-20T19:48:41;2.45;;;0.70;;
74269;SDS011;62754;48.252;11.654;2023-12-20T19:51:07;2.83;;;0.90;;
74269;SDS011;62754;48.252;11.654;2023-12-20T19:53:33;1.05;;;0.60;;
74269;SDS011;62754;48.252;11.654;2023-12-20T19:55:59;4.25;;;1.00;;
74269;SDS011;62754;48.252;11.654;2023-12-20T19:58:26;1.33;;;0.50;;
74269;SDS011;62754;48.252;11.654;2023-12-20T20:00:52;3.15;;;0.80;;
74269;SDS011;62754;48.252;11.654;2023-12-20T20:03:18;3.30;;;0.80;;
74269;SDS011;62754;48.252;11.654;2023-12-20T20:05:45;2.08;;;0.93;;
74269;SDS011;62754;48.252;11.654;2023-12-20T20:08:10;3.85;;;0.88;;
74269;SDS011;62754;48.252;11.654;2023-12-20T20:10:36;1.70;;;0.73;;
74269;SDS011;62754;48.252;11.654;2023-12-20T20:13:03;4.32;;;0.90;;
74269;SDS011;62754;48.252;11.654;2023-12-20T20:15:29;4.22;;;1.23;;
74269;SDS011;62754;48.252;11.654;2023-12-20T20:17:54;2.15;;;0.80;;
74269;SDS011;62754;48.252;11.654;2023-12-20T20:20:20;4.25;;;1.27;;
74269;SDS011;62754;48.252;11.654;2023-12-20T20:22:47;3.47;;;1.65;;
74269;SDS011;62754;48.252;11.654;2023-12-20T20:25:13;3.13;;;1.00;;
74269;SDS011;62754;48.252;11.654;2023-12-20T20:27:39;2.92;;;0.90;;
74269;SDS011;62754;48.252;11.654;2023-12-20T20:30:05;3.03;;;1.20;;
74269;SDS011;62754;48.252;11.654;2023-12-20T20:32:31;3.58;;;1.15;;
74269;SDS011;62754;48.252;11.654;2023-12-20T20:34:57;2.13;;;0.95;;
74269;SDS011;62754;48.252;11.654;2023-12-20T20:37:22;3.42;;;1.20;;
74269;SDS011;62754;48.252;11.654;2023-12-20T20:39:48;3.13;;;1.10;;
74269;SDS011;62754;48.252;11.654;2023-12-20T20:42:14;3.88;;;1.10;;
74269;SDS011;62754;48.252;11.654;2023-12-20T20:44:40;2.22;;;1.00;;
74269;SDS011;62754;48.252;11.654;2023-12-20T20:47:06;2.28;;;1.00;;
74269;SDS011;62754;48.252;11.654;2023-12-20T20:49:32;2.15;;;0.90;;
74269;SDS011;62754;48.252;11.654;2023-12-20T20:51:58;2.78;;;1.08;;
74269;SDS011;62754;48.252;11.654;2023-12-20T20:54:24;4.40;;;1.40;;
74269;SDS011;62754;48.252;11.654;2023-12-20T20:56:50;4.50;;;1.00;;
74269;SDS011;62754;48.252;11.654;2023-12-20T20:59:17;3.97;;;1.20;;
74269;SDS011;62754;48.252;11.654;2023-12-20T21:01:44;3.13;;;1.02;;
74269;SDS011;62754;48.252;11.654;2023-12-20T21:04:09;3.42;;;1.38;;
74269;SDS011;62754;48.252;11.654;2023-12-20T21:06:35;5.57;;;1.10;;
74269;SDS011;62754;48.252;11.654;2023-12-20T21:09:01;3.28;;;1.00;;
74269;SDS011;62754;48.252;11.654;2023-12-20T21:11:27;2.13;;;0.90;;
74269;SDS011;62754;48.252;11.654;2023-12-20T21:13:53;1.88;;;0.82;;
74269;SDS011;62754;48.252;11.654;2023-12-20T21:16:19;3.72;;;1.08;;
74269;SDS011;62754;48.252;11.654;2023-12-20T21:18:45;2.17;;;0.90;;
74269;SDS011;62754;48.252;11.654;2023-12-20T21:21:11;2.72;;;0.80;;
74269;SDS011;62754;48.252;11.654;2023-12-20T21:23:38;2.65;;;1.15;;
74269;SDS011;62754;48.252;11.654;2023-12-20T21:26:04;3.10;;;0.98;;
74269;SDS011;62754;48.252;11.654;2023-12-20T21:28:33;2.65;;;1.00;;
74269;SDS011;62754;48.252;11.654;2023-12-20T21:31:00;2.60;;;0.80;;
74269;SDS011;62754;48.252;11.654;2023-12-20T21:33:27;2.63;;;0.60;;
74269;SDS011;62754;48.252;11.654;2023-12-20T21:35:53;3.17;;;0.93;;
74269;SDS011;62754;48.252;11.654;2023-12-20T21:38:19;2.33;;;0.80;;
74269;SDS011;62754;48.252;11.654;2023-12-20T21:40:45;3.20;;;0.95;;
74269;SDS011;62754;48.252;11.654;2023-12-20T21:45:37;3.30;;;0.70;;
74269;SDS011;62754;48.252;11.654;2023-12-20T21:48:03;2.10;;;0.65;;
74269;SDS011;62754;48.252;11.654;2023-12-20T21:50:29;2.58;;;1.00;;
74269;SDS011;62754;48.252;11.654;2023-12-20T21:52:55;2.53;;;0.88;;
74269;SDS011;62754;48.252;11.654;2023-12-20T21:57:48;2.47;;;0.60;;
74269;SDS011;62754;48.252;11.654;2023-12-20T22:00:14;1.92;;;0.60;;
74269;SDS011;62754;48.252;11.654;2023-12-20T22:02:40;2.83;;;0.80;;
74269;SDS011;62754;48.252;11.654;2023-12-20T22:05:06;2.45;;;0.80;;
74269;SDS011;62754;48.252;11.654;2023-12-20T22:07:32;2.42;;;0.65;;
74269;SDS011;62754;48.252;11.654;2023-12-20T22:09:58;2.83;;;0.80;;
74269;SDS011;62754;48.252;11.654;2023-12-20T22:12:24;2.35;;;0.75;;
74269;SDS011;62754;48.252;11.654;2023-12-20T22:14:49;1.55;;;0.70;;
74269;SDS011;62754;48.252;11.654;2023-12-20T22:17:16;2.85;;;0.60;;
74269;SDS011;62754;48.252;11.654;2023-12-20T22:19:42;1.38;;;0.52;;
74269;SDS011;62754;48.252;11.654;2023-12-20T22:22:08;2.92;;;0.63;;
74269;SDS011;62754;48.252;11.654;2023-12-20T22:24:34;3.05;;;0.93;;
74269;SDS011;62754;48.252;11.654;2023-12-20T22:26:59;2.20;;;0.50;;
74269;SDS011;62754;48.252;11.654;2023-12-20T22:29:25;4.13;;;0.60;;
74269;SDS011;62754;48.252;11.654;2023-12-20T22:31:54;2.22;;;0.70;;
74269;SDS011;62754;48.252;11.654;2023-12-20T22:36:47;2.38;;;0.40;;
74269;SDS011;62754;48.252;11.654;2023-12-20T22:39:13;3.47;;;0.57;;
74269;SDS011;62754;48.252;11.654;2023-12-20T22:41:39;1.55;;;0.52;;
74269;SDS011;62754;48.252;11.654;2023-12-20T22:44:06;4.38;;;0.60;;
74269;SDS011;62754;48.252;11.654;2023-12-20T22:46:33;4.90;;;0.77;;
74269;SDS011;62754;48.252;11.654;2023-12-20T22:49:00;2.08;;;0.45;;
74269;SDS011;62754;48.252;11.654;2023-12-20T22:51:26;1.08;;;0.52;;
74269;SDS011;62754;48.252;11.654;2023-12-20T22:53:54;0.95;;;0.30;;
74269;SDS011;62754;48.252;11.654;2023-12-20T22:58:47;1.88;;;0.40;;
74269;SDS011;62754;48.252;11.654;2023-12-20T23:01:13;2.80;;;0.50;;
74269;SDS011;62754;48.252;11.654;2023-12-20T23:03:38;1.95;;;0.47;;
74269;SDS011;62754;48.252;11.654;2023-12-20T23:06:04;1.45;;;0.50;;
74269;SDS011;62754;48.252;11.654;2023-12-20T23:08:30;1.45;;;0.38;;
74269;SDS011;62754;48.252;11.654;2023-12-20T23:10:57;1.83;;;0.43;;
74269;SDS011;62754;48.252;11.654;2023-12-20T23:13:22;2.55;;;0.50;;
74269;SDS011;62754;48.252;11.654;2023-12-20T23:15:48;1.92;;;0.40;;
74269;SDS011;62754;48.252;11.654;2023-12-20T23:18:14;2.35;;;0.60;;
74269;SDS011;62754;48.252;11.654;2023-12-20T23:20:40;1.17;;;0.40;;
74269;SDS011;62754;48.252;11.654;2023-12-20T23:23:08;2.20;;;0.68;;
74269;SDS011;62754;48.252;11.654;2023-12-20T23:25:34;2.55;;;0.80;;
74269;SDS011;62754;48.252;11.654;2023-12-20T23:28:00;1.45;;;0.40;;
74269;SDS011;62754;48.252;11.654;2023-12-20T23:30:25;1.40;;;0.30;;
74269;SDS011;62754;48.252;11.654;2023-12-20T23:32:51;1.77;;;0.57;;
74269;SDS011;62754;48.252;11.654;2023-12-20T23:35:17;2.42;;;0.40;;
74269;SDS011;62754;48.252;11.654;2023-12-20T23:37:43;1.27;;;0.30;;
74269;SDS011;62754;48.252;11.654;2023-12-20T23:40:09;1.83;;;0.47;;
74269;SDS011;62754;48.252;11.654;2023-12-20T23:42:35;2.25;;;0.40;;
74269;SDS011;62754;48.252;11.654;2023-12-20T23:45:01;1.10;;;0.40;;
74269;SDS011;62754;48.252;11.654;2023-12-20T23:47:27;1.98;;;0.30;;
74269;SDS011;62754;48.252;11.654;2023-12-20T23:49:53;2.15;;;0.68;;
74269;SDS011;62754;48.252;11.654;2023-12-20T23:52:18;2.08;;;0.45;;
74269;SDS011;62754;48.252;11.654;2023-12-20T23:54:44;2.35;;;0.50;;
74269;SDS011;62754;48.252;11.654;2023-12-20T23:57:10;2.95;;;0.50;;
74269;SDS011;62754;48.252;11.654;2023-12-20T23:59:36;1.88;;;0.50;;
